INCAT VABB-VAPO
Flight info
| Callsign | INCAT |
|---|---|
| Flight time | 0h 15m |
| Altitude | 15000 |
| Route | BBB W28 PPN |
| Aircraft | C700/M-SBDGHM1RWXY/LB2 |
Departure
| Time | 2026-05-06 06:52 |
|---|---|
| Airport | Chhatrapati Shivaji Maharaj International Airport (VABB) |
Arrival
| Time | 2026-05-06 07:08 |
|---|---|
| Airport | Pune International Airport (VAPO) |
| Time | Latitude | Longitude | Altitude | Speed | Heading |
|---|---|---|---|---|---|
| 2026-05-06 06:15 | 19.09327 | 72.87082 | 27 ft | 0 kts | 28° |
| 2026-05-06 06:37 | 19.09300 | 72.87067 | 27 ft | 9 kts | 26° |
| 2026-05-06 06:37 | 19.09290 | 72.87061 | 27 ft | 0 kts | 26° |
| 2026-05-06 06:39 | 19.09264 | 72.87046 | 20 ft | 9 kts | 29° |
| 2026-05-06 06:39 | 19.09247 | 72.87036 | 27 ft | 3 kts | 41° |
| 2026-05-06 06:40 | 19.09241 | 72.87021 | 27 ft | 0 kts | 95° |
| 2026-05-06 06:40 | 19.09232 | 72.87050 | 27 ft | 8 kts | 122° |
| 2026-05-06 06:40 | 19.09189 | 72.87083 | 27 ft | 0 kts | 168° |
| 2026-05-06 06:41 | 19.09194 | 72.87081 | 27 ft | 3 kts | 163° |
| 2026-05-06 06:41 | 19.09226 | 72.87056 | 27 ft | 5 kts | 136° |
| 2026-05-06 06:41 | 19.09233 | 72.87051 | 27 ft | 3 kts | 95° |
| 2026-05-06 06:41 | 19.09236 | 72.87135 | 27 ft | 20 kts | 90° |
| 2026-05-06 06:42 | 19.09232 | 72.87238 | 27 ft | 9 kts | 124° |
| 2026-05-06 06:42 | 19.09181 | 72.87262 | 27 ft | 0 kts | 171° |
| 2026-05-06 06:42 | 19.09180 | 72.87262 | 27 ft | 2 kts | 175° |
| 2026-05-06 06:42 | 19.09108 | 72.87263 | 27 ft | 0 kts | 172° |
| 2026-05-06 06:46 | 19.09105 | 72.87264 | 27 ft | 0 kts | 172° |
| 2026-05-06 06:47 | 19.09098 | 72.87265 | 27 ft | 4 kts | 171° |
| 2026-05-06 06:47 | 19.09054 | 72.87297 | 27 ft | 12 kts | 126° |
| 2026-05-06 06:47 | 19.09050 | 72.87314 | 27 ft | 4 kts | 93° |
| 2026-05-06 06:48 | 19.09053 | 72.87367 | 27 ft | 7 kts | 83° |
| 2026-05-06 06:48 | 19.09053 | 72.87400 | 27 ft | 3 kts | 94° |
| 2026-05-06 06:48 | 19.09050 | 72.87415 | 27 ft | 0 kts | 104° |
| 2026-05-06 06:48 | 19.09024 | 72.87451 | 27 ft | 3 kts | 157° |
| 2026-05-06 06:49 | 19.09016 | 72.87452 | 27 ft | 1 kts | 169° |
| 2026-05-06 06:49 | 19.08990 | 72.87454 | 27 ft | 0 kts | 179° |
| 2026-05-06 06:51 | 19.08948 | 72.87453 | 29 ft | 14 kts | 181° |
| 2026-05-06 06:51 | 19.08874 | 72.87426 | 26 ft | 0 kts | 250° |
| 2026-05-06 06:52 | 19.08877 | 72.87360 | 27 ft | 46 kts | 271° |
| 2026-05-06 06:52 | 19.08874 | 72.86580 | 24 ft | 161 kts | 269° |
| 2026-05-06 06:52 | 19.08844 | 72.85186 | 688 ft | 218 kts | 265° |
| 2026-05-06 06:52 | 19.08830 | 72.83276 | 1305 ft | 297 kts | 282° |
| 2026-05-06 06:53 | 19.09346 | 72.80978 | 2622 ft | 350 kts | 281° |
| 2026-05-06 06:53 | 19.09236 | 72.78144 | 3138 ft | 425 kts | 257° |
| 2026-05-06 06:53 | 19.07877 | 72.75138 | 3610 ft | 484 kts | 235° |
| 2026-05-06 06:53 | 19.05388 | 72.72522 | 4067 ft | 527 kts | 216° |
| 2026-05-06 06:54 | 19.02019 | 72.70829 | 4739 ft | 552 kts | 192° |
| 2026-05-06 06:54 | 18.98261 | 72.71190 | 4271 ft | 553 kts | 140° |
| 2026-05-06 06:54 | 18.96132 | 72.74433 | 5353 ft | 557 kts | 116° |
| 2026-05-06 06:54 | 18.94857 | 72.78266 | 4117 ft | 552 kts | 101° |
| 2026-05-06 06:55 | 18.94331 | 72.82246 | 4586 ft | 548 kts | 93° |
| 2026-05-06 06:55 | 18.94367 | 72.86282 | 5051 ft | 550 kts | 85° |
| 2026-05-06 06:55 | 18.94361 | 72.90336 | 5453 ft | 557 kts | 97° |
| 2026-05-06 06:55 | 18.93095 | 72.94200 | 5864 ft | 563 kts | 116° |
| 2026-05-06 06:56 | 18.91156 | 72.97802 | 6335 ft | 566 kts | 119° |
| 2026-05-06 06:56 | 18.89244 | 73.01455 | 6778 ft | 569 kts | 117° |
| 2026-05-06 06:56 | 18.87354 | 73.05137 | 7209 ft | 572 kts | 118° |
| 2026-05-06 06:56 | 18.85412 | 73.08821 | 7641 ft | 576 kts | 119° |
| 2026-05-06 06:57 | 18.83487 | 73.12480 | 8062 ft | 579 kts | 119° |
| 2026-05-06 06:57 | 18.81528 | 73.16214 | 8511 ft | 583 kts | 119° |
| 2026-05-06 06:57 | 18.79573 | 73.19977 | 8957 ft | 587 kts | 119° |
| 2026-05-06 06:57 | 18.77618 | 73.23775 | 9422 ft | 591 kts | 119° |
| 2026-05-06 06:58 | 18.75815 | 73.27696 | 9854 ft | 597 kts | 113° |
| 2026-05-06 06:58 | 18.74425 | 73.31844 | 10278 ft | 602 kts | 110° |
| 2026-05-06 06:58 | 18.72313 | 73.36836 | 10840 ft | 609 kts | 117° |
| 2026-05-06 06:58 | 18.69127 | 73.45211 | 11547 ft | 621 kts | 111° |
| 2026-05-06 06:59 | 18.65554 | 73.53495 | 11500 ft | 621 kts | 110° |
| 2026-05-06 06:59 | 18.62256 | 73.61760 | 11457 ft | 620 kts | 117° |
| 2026-05-06 06:59 | 18.59088 | 73.70225 | 11432 ft | 621 kts | 113° |
| 2026-05-06 06:59 | 18.55526 | 73.78488 | 11401 ft | 620 kts | 109° |
| 2026-05-06 07:00 | 18.52063 | 73.86786 | 11382 ft | 620 kts | 117° |
| 2026-05-06 07:00 | 18.50482 | 73.91163 | 11165 ft | 620 kts | 108° |
| 2026-05-06 07:00 | 18.49008 | 73.95107 | 10494 ft | 525 kts | 121° |
| 2026-05-06 07:00 | 18.47269 | 73.97765 | 9936 ft | 460 kts | 125° |
| 2026-05-06 07:01 | 18.46095 | 74.00382 | 9379 ft | 429 kts | 103° |
| 2026-05-06 07:01 | 18.46067 | 74.03426 | 8784 ft | 411 kts | 77° |
| 2026-05-06 07:01 | 18.47201 | 74.06125 | 8221 ft | 400 kts | 53° |
| 2026-05-06 07:02 | 18.49227 | 74.08060 | 7696 ft | 393 kts | 29° |
| 2026-05-06 07:02 | 18.51791 | 74.08910 | 7306 ft | 385 kts | 4° |
| 2026-05-06 07:02 | 18.54398 | 74.08534 | 7121 ft | 377 kts | 339° |
| 2026-05-06 07:02 | 18.56562 | 74.07047 | 7033 ft | 372 kts | 314° |
| 2026-05-06 07:03 | 18.56583 | 73.98859 | 6986 ft | 370 kts | 226° |
| 2026-05-06 07:03 | 18.51703 | 73.94762 | 6971 ft | 368 kts | 232° |
| 2026-05-06 07:03 | 18.50279 | 73.92526 | 6965 ft | 368 kts | 241° |
| 2026-05-06 07:03 | 18.49147 | 73.90112 | 6956 ft | 367 kts | 248° |
| 2026-05-06 07:04 | 18.48221 | 73.87618 | 6948 ft | 362 kts | 251° |
| 2026-05-06 07:04 | 18.47465 | 73.85139 | 6934 ft | 351 kts | 257° |
| 2026-05-06 07:04 | 18.47340 | 73.82655 | 6906 ft | 337 kts | 284° |
| 2026-05-06 07:04 | 18.48353 | 73.80499 | 6940 ft | 328 kts | 313° |
| 2026-05-06 07:05 | 18.50199 | 73.79175 | 6973 ft | 323 kts | 342° |
| 2026-05-06 07:05 | 18.52386 | 73.78984 | 7011 ft | 309 kts | 11° |
| 2026-05-06 07:05 | 18.54117 | 73.79712 | 6974 ft | 263 kts | 29° |
| 2026-05-06 07:05 | 18.54522 | 73.79957 | 6943 ft | 252 kts | 31° |
| 2026-05-06 07:06 | 18.55833 | 73.80986 | 6931 ft | 222 kts | 42° |
| 2026-05-06 07:06 | 18.56874 | 73.82092 | 6570 ft | 209 kts | 47° |
| 2026-05-06 07:06 | 18.57781 | 73.83347 | 5605 ft | 219 kts | 56° |
| 2026-05-06 07:06 | 18.58469 | 73.84861 | 4143 ft | 238 kts | 68° |
| 2026-05-06 07:07 | 18.58907 | 73.86599 | 2728 ft | 249 kts | 80° |
| 2026-05-06 07:07 | 18.58839 | 73.88275 | 2613 ft | 207 kts | 103° |
| 2026-05-06 07:07 | 18.58435 | 73.89628 | 2283 ft | 181 kts | 102° |
| 2026-05-06 07:07 | 18.58283 | 73.90785 | 1932 ft | 157 kts | 93° |
| 2026-05-06 07:08 | 18.58260 | 73.91672 | 1917 ft | 75 kts | 94° |
| 2026-05-06 07:08 | 18.58175 | 73.92033 | 1916 ft | 44 kts | 134° |
| 2026-05-06 07:08 | 18.58097 | 73.92122 | 1917 ft | 0 kts | 134° |